AirNav   ProFlight Series 2 Aviation Headset
 
 1089 users online  

6MA1 Nason Hill Heliport
Sherborn, Massachusetts, USA

GOING TO SHERBORN?


FAA INFORMATION EFFECTIVE 16 JULY 2020

Location

FAA Identifier: 6MA1
Lat/Long: 42-12-21.3490N 071-22-44.2120W
42-12.355817N 071-22.736867W
42.2059303,-71.3789478
(estimated)
Elevation: 182 ft. / 55.5 m (surveyed)
Variation: 15W (1985)
From city: 2 miles S of SHERBORN, MA
Time zone: UTC -4 (UTC -5 during Standard Time)
Zip code: 01770

Heliport Operations

Heliport use: Private use, PERSONAL USE.
Activation date: 05/1988
Control tower: no
ARTCC: BOSTON CENTER
FSS: BRIDGEPORT FLIGHT SERVICE STATION
Attendance: UNATNDD
Segmented circle: no
Lights: FOR PERIMETER LGTS CALL 508-650-9252.

Heliport Communications

WX ASOS at OWD (9 nm E): 119.95 (781-762-4314)
WX ASOS at BED (16 nm N): 124.6 (781-274-9733)
WX AWOS-3PT at SFZ (18 nm S): 120.775 (401-334-0324)
WX ASOS at BOS (19 nm NE): PHONE 617-567-5762

Nearby radio navigation aids

VOR radial/distance  VOR name  Freq  Var
BOSr258/19.5BOSTON VOR/DME112.7016W
PUTr068/25.6PUTNAM VOR/DME117.4014W
PVDr018/29.0PROVIDENCE VOR/DME115.6014W
LWMr216/34.4LAWRENCE VOR/DME112.5015W
GDMr138/36.4GARDNER VOR/DME110.6014W
MHTr196/39.8MANCHESTER VOR/DME114.4015W

 
NDB name  Hdg/Dist  Freq  Var  ID
STOGE310/12.339715WOW --- .--

Heliport Services

Runway Information

Helipad H1

Dimensions: 25 x 25 ft. / 8 x 8 m
Surface: wood
Runway edge lights: PERI
Latitude: 42-12.355817N
Longitude: 071-22.736867W
Elevation: 182.0 ft.
Traffic pattern: leftleft

Heliport Ownership and Management from official FAA records

Ownership: Privately-owned
Owner: THOMAS C. GRASSIA
75 NASON HILL ROAD
SHERBORN, MA 01770
Manager: THOMAS C. GRASSIA
5 COMMONWEALTH ROAD
NATICK, MA 01760
Phone 508-650-9252

Heliport Operational Statistics

Aircraft based on the field: 1
Helicopters: 1
    

Additional Remarks

FOR CD CTC BOSTON APCH AT 603-594-5551.

Instrument Procedures

There are no published instrument procedures at 6MA1.

Some nearby airports with instrument procedures:

1B6 - Hopedale Industrial Park Airport (8 nm SW)
KOWD - Norwood Memorial Airport (9 nm E)
1B9 - Mansfield Municipal Airport (15 nm SE)
KBED - Laurence G Hanscom Field Airport (16 nm N)
6B6 - Minute Man Air Field (16 nm N)
KSFZ - North Central State Airport (18 nm S)
KBOS - General Edward Lawrence Logan International Airport (19 nm NE)
 
Loc | Ops | Rwys | IFR | FBO | Links
Com | Nav | Svcs | Stats | Notes
Area around 6MA1 (Nason Hill Heliport)
 
Road maps at: MapQuest Bing Google
 
Aerial photo
No photo
 
Sectional chart

 
Airport distance calculator
Flying to Nason Hill Heliport? Find the distance to fly.

From to 6MA1

Sunrise and sunset
Times for 03-Aug-2020
 Local
(UTC-4)
 Zulu
(UTC)
Morning civil twilight05:1109:11
Sunrise05:4209:42
Sunset20:0100:01
Evening civil twilight20:3200:32

Current date and time
Zulu (UTC)  04-Aug-2020 00:47:55
Local (UTC-4)  03-Aug-2020 20:47:55
 
METAR
KOWD 
10nm E 
032353Z 25006KT 10SM SCT065 29/18 A3000 RMK AO2 SLP159 T02940178 10339 20294 53017
KBED 
16nm N 
032351Z 31004KT 10SM SCT065 27/18 A3000 RMK AO2 SLP168 T02720178 10322 20272 53016
KSFZ 
18nm S 
032356Z AUTO 26003KT 10SM CLR 27/18 A3003 RMK AO2 SLP114 T02670178 10322 20267 53015
KBOS 
19nm NE 
032354Z 30010KT 10SM FEW055 BKN250 29/17 A3000 RMK AO2 SLP159 T02940167 10333 20294 53018
TAF
KBED 
16nm N 
031735Z 0318/0418 26010G20KT P6SM FEW200 FM040000 28004KT P6SM FEW150 FM041000 00000KT P6SM BKN100 FM041600 14006KT P6SM VCSH OVC050
KBOS 
19nm NE 
032108Z 0321/0424 26010G20KT P6SM FEW250 FM040500 23004KT P6SM SCT200 FM041100 16004KT P6SM BKN200 FM041700 13007KT P6SM VCSH OVC040 FM042200 15010G20KT P6SM -SHRA BKN045 FM042300 15015G25KT P6SM -SHRA BKN025
NOTAMs
Click for the latest NOTAMs
NOTAMs are issued by the DoD/FAA and will open in a separate window not controlled by AirNav.

 

 
 

Would you like to see your business listed on this page?

 If your business provides an interesting product or service to pilots, flight crews, aircraft, or users of the Nason Hill Heliport, you should consider listing it here.  To start the listing process, click on the button below
 
Add a business
 

Other Pages about Nason Hill Heliport

Update a link
 
Copyright © AirNav, LLC. All rights reserved. Privacy Policy  Contact